createdAt,value
2019-04-27T00:00:04.952Z,75.70
2019-04-27T00:01:11.560Z,75.90
2019-04-27T00:02:06.181Z,75.90
2019-04-27T00:03:06.480Z,75.80
2019-04-27T00:04:05.761Z,75.90
2019-04-27T00:05:05.141Z,75.90
2019-04-27T00:06:08.838Z,76.10
2019-04-27T00:07:10.502Z,76.10
2019-04-27T00:08:05.588Z,76.10
2019-04-27T00:09:11.526Z,76.20
2019-04-27T00:10:08.372Z,76.40
2019-04-27T00:11:09.128Z,76.40
2019-04-27T00:12:06.107Z,76.80
2019-04-27T00:13:07.908Z,76.80
2019-04-27T00:14:05.918Z,76.80
2019-04-27T00:15:10.056Z,76.90
2019-04-27T00:16:11.033Z,76.70
2019-04-27T00:17:06.030Z,76.90
2019-04-27T00:18:05.213Z,76.80
2019-04-27T00:19:05.800Z,76.80
2019-04-27T00:20:05.937Z,77.00
2019-04-27T00:21:08.544Z,76.90
2019-04-27T00:22:05.563Z,76.80
2019-04-27T00:23:08.451Z,77.00
2019-04-27T00:24:05.552Z,76.90
2019-04-27T00:25:05.991Z,77.10
2019-04-27T00:26:13.408Z,77.00
2019-04-27T00:27:10.840Z,77.00
2019-04-27T00:28:05.962Z,76.80
2019-04-27T00:29:05.198Z,76.90
2019-04-27T00:30:05.398Z,76.90
2019-04-27T00:31:08.000Z,77.20
2019-04-27T00:32:07.645Z,77.10
2019-04-27T00:33:10.928Z,77.50
2019-04-27T00:34:06.179Z,77.50
2019-04-27T00:35:05.527Z,77.40
2019-04-27T00:36:05.660Z,77.30
2019-04-27T00:37:05.969Z,77.40
2019-04-27T00:38:10.184Z,77.40
2019-04-27T00:39:05.689Z,77.60
2019-04-27T00:40:05.849Z,77.50
2019-04-27T00:41:04.992Z,77.60
2019-04-27T00:42:05.240Z,77.60
2019-04-27T00:43:05.402Z,77.70
2019-04-27T00:44:08.520Z,77.60
2019-04-27T00:45:05.891Z,77.60
2019-04-27T00:46:07.617Z,77.60
2019-04-27T00:47:08.195Z,77.70
2019-04-27T00:48:05.210Z,77.60
2019-04-27T00:49:05.433Z,77.80
2019-04-27T00:50:05.551Z,77.80
2019-04-27T00:51:05.706Z,77.80
2019-04-27T00:52:05.806Z,77.90
2019-04-27T00:53:06.122Z,77.80
2019-04-27T00:54:05.230Z,77.70
2019-04-27T00:55:05.398Z,77.70
2019-04-27T00:56:05.655Z,77.70
2019-04-27T00:57:05.821Z,77.80
2019-04-27T00:58:06.066Z,77.90
2019-04-27T00:59:05.443Z,77.80
2019-04-27T01:00:05.633Z,77.80
2019-04-27T01:01:06.160Z,77.90
2019-04-27T01:02:07.895Z,77.90
2019-04-27T01:03:06.004Z,77.90
2019-04-27T01:04:05.425Z,77.90
2019-04-27T01:05:06.327Z,77.90
2019-04-27T01:06:05.475Z,77.90
2019-04-27T01:07:05.728Z,78.10
2019-04-27T01:08:05.884Z,78.00
2019-04-27T01:09:10.318Z,78.20
2019-04-27T01:10:05.706Z,78.20
2019-04-27T01:11:05.966Z,78.10
2019-04-27T01:12:07.657Z,78.10
2019-04-27T01:13:05.621Z,78.10
2019-04-27T01:14:08.224Z,78.20
2019-04-27T01:15:05.181Z,78.20
2019-04-27T01:16:05.390Z,78.20
2019-04-27T01:17:06.520Z,78.20
2019-04-27T01:18:15.301Z,78.30
2019-04-27T01:19:05.945Z,78.30
2019-04-27T01:20:05.180Z,78.30
2019-04-27T01:21:05.408Z,78.30
2019-04-27T01:22:09.115Z,78.30
2019-04-27T01:23:05.205Z,78.20
2019-04-27T01:24:05.313Z,78.20
2019-04-27T01:25:09.187Z,78.40
2019-04-27T01:26:05.172Z,78.30
2019-04-27T01:27:05.472Z,78.30
2019-04-27T01:28:05.713Z,78.40
2019-04-27T01:29:07.547Z,78.10
2019-04-27T01:30:05.767Z,78.10
2019-04-27T01:31:10.988Z,78.20
2019-04-27T01:32:05.937Z,78.10
2019-04-27T01:33:05.150Z,78.30
2019-04-27T01:34:09.546Z,78.30
2019-04-27T01:35:09.237Z,78.10
2019-04-27T01:36:05.363Z,78.50
2019-04-27T01:37:09.807Z,78.30
2019-04-27T01:38:09.448Z,78.20
2019-04-27T01:39:08.841Z,78.50
2019-04-27T01:40:10.137Z,78.60
2019-04-27T01:41:05.307Z,78.50
2019-04-27T01:42:05.467Z,78.90
2019-04-27T01:43:05.602Z,78.70
2019-04-27T01:44:05.722Z,78.70
2019-04-27T01:45:05.990Z,78.60
2019-04-27T01:46:05.215Z,78.60
2019-04-27T01:47:05.379Z,78.60
2019-04-27T01:48:05.878Z,78.60
2019-04-27T01:49:09.521Z,78.60
2019-04-27T01:50:05.576Z,78.60
2019-04-27T01:51:05.768Z,78.80
2019-04-27T01:52:05.850Z,78.70
2019-04-27T01:53:05.907Z,78.70
2019-04-27T01:54:05.178Z,78.70
2019-04-27T01:55:05.419Z,78.70
2019-04-27T01:56:05.548Z,78.70
2019-04-27T01:57:08.114Z,78.60
2019-04-27T01:58:11.216Z,78.90
2019-04-27T01:59:05.233Z,78.80
2019-04-27T02:00:05.411Z,78.90
2019-04-27T02:01:05.584Z,78.70
2019-04-27T02:02:05.919Z,78.80
2019-04-27T02:03:05.065Z,78.80
2019-04-27T02:04:05.211Z,78.90
2019-04-27T02:05:09.366Z,78.80
2019-04-27T02:06:09.550Z,78.80
2019-04-27T02:07:05.516Z,78.80
2019-04-27T02:08:05.627Z,78.80
2019-04-27T02:09:05.907Z,78.80
2019-04-27T02:10:05.369Z,78.80
2019-04-27T02:11:05.495Z,78.90
2019-04-27T02:12:10.048Z,79.00
2019-04-27T02:13:09.324Z,79.30
2019-04-27T02:14:05.298Z,79.30
2019-04-27T02:15:06.471Z,79.30
2019-04-27T02:16:09.357Z,79.30
2019-04-27T02:17:05.446Z,79.30
2019-04-27T02:18:09.880Z,79.10
2019-04-27T02:19:05.895Z,79.20
2019-04-27T02:20:05.020Z,79.00
2019-04-27T02:21:09.435Z,79.10
2019-04-27T02:22:05.669Z,79.00
2019-04-27T02:23:09.511Z,79.10
2019-04-27T02:24:05.549Z,78.90
2019-04-27T02:25:05.680Z,79.00
2019-04-27T02:26:05.892Z,79.00
2019-04-27T02:27:05.028Z,79.00
2019-04-27T02:28:09.699Z,79.00
2019-04-27T02:29:09.184Z,79.20
2019-04-27T02:30:07.730Z,79.10
2019-04-27T02:31:06.104Z,79.10
2019-04-27T02:32:10.922Z,78.90
2019-04-27T02:33:13.011Z,79.00
2019-04-27T02:34:05.166Z,79.00
2019-04-27T02:35:05.556Z,79.10
2019-04-27T02:36:05.708Z,79.00
2019-04-27T02:37:10.626Z,78.90
2019-04-27T02:38:05.674Z,78.90
2019-04-27T02:39:09.869Z,78.90
2019-04-27T02:40:06.014Z,78.90
2019-04-27T02:41:05.183Z,78.80
2019-04-27T02:42:05.285Z,78.80
2019-04-27T02:43:05.441Z,78.90
2019-04-27T02:44:05.752Z,78.90
2019-04-27T02:45:10.036Z,78.80
2019-04-27T02:46:05.191Z,78.80
2019-04-27T02:47:10.892Z,78.90
2019-04-27T02:48:06.102Z,78.80
2019-04-27T02:49:10.173Z,78.80
2019-04-27T02:50:05.844Z,78.80
2019-04-27T02:51:10.520Z,78.70
2019-04-27T02:52:05.546Z,78.80
2019-04-27T02:53:11.648Z,78.80
2019-04-27T02:54:05.551Z,78.80
2019-04-27T02:55:10.090Z,78.80
2019-04-27T02:56:10.842Z,78.80
2019-04-27T02:57:05.817Z,78.70
2019-04-27T02:58:05.936Z,78.80
2019-04-27T02:59:12.212Z,78.70
2019-04-27T03:00:10.184Z,78.80
2019-04-27T03:01:05.504Z,78.70
2019-04-27T03:02:05.768Z,78.80
2019-04-27T03:03:05.906Z,78.70
2019-04-27T03:04:05.911Z,78.80
2019-04-27T03:05:05.353Z,78.60
2019-04-27T03:06:05.486Z,78.60
2019-04-27T03:07:05.620Z,78.60
2019-04-27T03:08:06.141Z,78.60
2019-04-27T03:09:10.676Z,78.60
2019-04-27T03:10:10.278Z,78.60
2019-04-27T03:11:10.245Z,78.60
2019-04-27T03:12:05.169Z,78.60
2019-04-27T03:13:05.390Z,78.60
2019-04-27T03:14:05.461Z,78.60
2019-04-27T03:15:05.561Z,78.60
2019-04-27T03:16:08.209Z,78.70
2019-04-27T03:17:05.339Z,79.10
2019-04-27T03:18:10.372Z,78.80
2019-04-27T03:19:21.480Z,78.80
2019-04-27T03:20:10.962Z,78.80
2019-04-27T03:21:04.997Z,78.80
2019-04-27T03:22:10.160Z,78.80
2019-04-27T03:23:06.150Z,78.80
2019-04-27T03:24:05.249Z,78.80
2019-04-27T03:25:05.397Z,78.70
2019-04-27T03:26:13.292Z,79.00
2019-04-27T03:27:05.410Z,79.00
2019-04-27T03:28:05.859Z,78.90
2019-04-27T03:29:10.129Z,78.80
2019-04-27T03:30:05.334Z,78.90
2019-04-27T03:31:05.580Z,78.80
2019-04-27T03:32:13.149Z,78.80
2019-04-27T03:33:05.403Z,78.80
2019-04-27T03:34:16.759Z,78.80
2019-04-27T03:35:12.095Z,78.80
2019-04-27T03:36:05.618Z,78.80
2019-04-27T03:37:05.739Z,78.80
2019-04-27T03:38:12.700Z,78.80
2019-04-27T03:39:05.992Z,78.80
2019-04-27T03:40:05.501Z,78.80
2019-04-27T03:41:05.753Z,78.80
2019-04-27T03:42:05.893Z,78.80
2019-04-27T03:43:05.004Z,78.80
2019-04-27T03:44:05.884Z,78.80
2019-04-27T03:45:05.467Z,78.80
2019-04-27T03:46:05.715Z,78.80
2019-04-27T03:47:05.852Z,78.80
2019-04-27T03:48:10.764Z,78.90
2019-04-27T03:49:05.768Z,79.00
2019-04-27T03:50:06.044Z,78.90
2019-04-27T03:51:10.550Z,79.00
2019-04-27T03:52:10.113Z,79.10
2019-04-27T03:53:05.375Z,78.90
2019-04-27T03:54:11.230Z,79.00
2019-04-27T03:55:05.301Z,78.90
2019-04-27T03:56:05.543Z,79.00
2019-04-27T03:57:05.988Z,79.00
2019-04-27T03:58:12.721Z,79.10
2019-04-27T03:59:10.790Z,79.00
2019-04-27T04:00:05.812Z,79.10
2019-04-27T04:01:10.949Z,79.10
2019-04-27T04:02:10.487Z,79.00
2019-04-27T04:03:05.934Z,79.10
2019-04-27T04:04:10.712Z,79.10
2019-04-27T04:05:10.380Z,79.10
2019-04-27T04:06:05.565Z,79.10
2019-04-27T04:07:10.007Z,79.20
2019-04-27T04:08:05.011Z,79.20
2019-04-27T04:09:10.581Z,79.10
2019-04-27T04:10:05.922Z,79.10
2019-04-27T04:11:05.065Z,79.20
2019-04-27T04:12:10.026Z,79.10
2019-04-27T04:13:05.125Z,79.20
2019-04-27T04:14:05.353Z,79.10
2019-04-27T04:15:10.537Z,79.10
2019-04-27T04:16:10.562Z,79.20
2019-04-27T04:17:12.976Z,79.30
2019-04-27T04:18:05.101Z,79.10
2019-04-27T04:19:10.243Z,79.30
2019-04-27T04:20:05.296Z,79.30
2019-04-27T04:21:05.402Z,79.30
2019-04-27T04:22:10.770Z,79.30
2019-04-27T04:23:10.871Z,79.30
2019-04-27T04:24:11.825Z,79.40
2019-04-27T04:25:11.020Z,79.40
2019-04-27T04:26:05.097Z,79.30
2019-04-27T04:27:05.221Z,79.40
2019-04-27T04:28:09.872Z,79.30
2019-04-27T04:29:05.888Z,79.20
2019-04-27T04:30:05.197Z,79.30
2019-04-27T04:31:05.556Z,79.20
2019-04-27T04:32:10.881Z,79.20
2019-04-27T04:33:06.094Z,79.20
2019-04-27T04:34:05.296Z,79.20
2019-04-27T04:35:06.211Z,79.20
2019-04-27T04:36:10.500Z,79.20
2019-04-27T04:37:09.663Z,79.20
2019-04-27T04:38:05.709Z,79.20
2019-04-27T04:39:05.906Z,79.30
2019-04-27T04:40:05.235Z,79.30
2019-04-27T04:41:05.633Z,79.40
2019-04-27T04:42:10.638Z,79.30
2019-04-27T04:43:05.761Z,79.30
2019-04-27T04:44:05.969Z,79.30
2019-04-27T04:45:05.176Z,79.30
2019-04-27T04:46:09.661Z,79.30
2019-04-27T04:47:05.800Z,79.30
2019-04-27T04:48:10.244Z,79.30
2019-04-27T04:49:05.458Z,79.30
2019-04-27T04:50:14.894Z,79.30
2019-04-27T04:51:05.435Z,79.30
2019-04-27T04:52:05.663Z,79.40
2019-04-27T04:53:13.083Z,79.50
2019-04-27T04:54:05.586Z,79.50
2019-04-27T04:55:05.125Z,79.50
2019-04-27T04:56:08.520Z,79.50
2019-04-27T04:57:05.233Z,79.60
2019-04-27T04:58:05.402Z,79.60
2019-04-27T04:59:10.793Z,79.70
2019-04-27T05:00:05.997Z,79.70
2019-04-27T05:01:10.191Z,79.80
2019-04-27T05:02:05.364Z,79.80
2019-04-27T05:03:05.784Z,79.80
2019-04-27T05:04:09.510Z,79.80
2019-04-27T05:05:05.848Z,79.80
2019-04-27T05:06:05.129Z,79.90
2019-04-27T05:07:05.326Z,79.80
2019-04-27T05:08:05.767Z,79.80
2019-04-27T05:09:06.046Z,79.80
2019-04-27T05:10:05.594Z,79.80
2019-04-27T05:11:11.900Z,79.90
2019-04-27T05:12:16.056Z,79.80
2019-04-27T05:13:09.631Z,79.80
2019-04-27T05:14:10.208Z,79.90
2019-04-27T05:15:09.550Z,79.80
2019-04-27T05:16:05.546Z,79.80
2019-04-27T05:17:09.843Z,79.90
2019-04-27T05:18:06.218Z,79.90
2019-04-27T05:19:05.431Z,79.80
2019-04-27T05:20:06.779Z,79.80
2019-04-27T05:21:05.910Z,79.90
2019-04-27T05:22:05.373Z,79.80
2019-04-27T05:23:05.819Z,79.90
2019-04-27T05:24:09.787Z,80.00
2019-04-27T05:25:05.890Z,80.00
2019-04-27T05:26:05.304Z,80.10
2019-04-27T05:27:06.057Z,80.00
2019-04-27T05:28:05.582Z,79.90
2019-04-27T05:29:09.496Z,79.90
2019-04-27T05:30:05.700Z,79.80
2019-04-27T05:31:05.250Z,79.80
2019-04-27T05:32:05.526Z,79.80
2019-04-27T05:33:05.785Z,79.80
2019-04-27T05:34:07.232Z,79.70
2019-04-27T05:35:05.376Z,79.80
2019-04-27T05:36:05.769Z,79.90
2019-04-27T05:37:09.549Z,79.80
2019-04-27T05:38:10.994Z,79.80
2019-04-27T05:39:05.450Z,79.60
2019-04-27T05:40:05.667Z,79.80
2019-04-27T05:41:05.849Z,79.80
2019-04-27T05:42:05.030Z,79.80
2019-04-27T05:43:10.368Z,79.70
2019-04-27T05:44:10.885Z,79.70
2019-04-27T05:45:09.858Z,79.70
2019-04-27T05:46:12.557Z,79.80
2019-04-27T05:47:12.769Z,79.70
2019-04-27T05:48:09.674Z,79.80
2019-04-27T05:49:07.607Z,79.80
2019-04-27T05:50:05.934Z,79.80
2019-04-27T05:51:09.490Z,79.90
2019-04-27T05:52:15.365Z,79.80
2019-04-27T05:53:05.627Z,79.80
2019-04-27T05:54:05.867Z,79.80
2019-04-27T05:55:05.008Z,80.00
2019-04-27T05:56:10.416Z,80.00
2019-04-27T05:57:05.683Z,80.30
2019-04-27T05:58:09.659Z,80.00
2019-04-27T05:59:06.138Z,80.00
2019-04-27T06:00:05.292Z,80.00
2019-04-27T06:01:05.915Z,80.00
2019-04-27T06:02:09.724Z,80.10
2019-04-27T06:03:05.874Z,80.10
2019-04-27T06:04:05.189Z,80.10
2019-04-27T06:05:05.484Z,80.10
2019-04-27T06:06:05.657Z,80.10
2019-04-27T06:07:05.865Z,80.10
2019-04-27T06:08:05.173Z,80.30
2019-04-27T06:09:05.508Z,80.20
2019-04-27T06:10:09.915Z,80.20
2019-04-27T06:11:06.049Z,80.20
2019-04-27T06:12:05.174Z,80.10
2019-04-27T06:13:05.659Z,80.30
2019-04-27T06:14:10.090Z,80.30
2019-04-27T06:15:10.559Z,80.30
2019-04-27T06:16:09.888Z,80.40
2019-04-27T06:17:06.160Z,80.40
2019-04-27T06:18:05.444Z,80.30
2019-04-27T06:19:05.638Z,80.20
2019-04-27T06:20:05.844Z,80.30
2019-04-27T06:21:10.214Z,80.20
2019-04-27T06:22:05.402Z,80.20
2019-04-27T06:23:09.290Z,80.00
2019-04-27T06:24:05.444Z,80.00
2019-04-27T06:25:12.083Z,80.10
2019-04-27T06:26:11.905Z,80.10
2019-04-27T06:27:05.125Z,80.10
2019-04-27T06:28:10.610Z,80.00
2019-04-27T06:29:10.773Z,80.00
2019-04-27T06:30:05.885Z,80.00
2019-04-27T06:31:09.212Z,80.00
2019-04-27T06:32:10.866Z,80.00
2019-04-27T06:33:05.262Z,80.00
2019-04-27T06:34:05.527Z,80.00
2019-04-27T06:35:12.281Z,80.10
2019-04-27T06:36:05.586Z,80.00
2019-04-27T06:37:10.084Z,80.00
2019-04-27T06:38:05.211Z,80.00
2019-04-27T06:39:05.391Z,80.00
2019-04-27T06:40:05.726Z,80.10
2019-04-27T06:41:12.899Z,80.20
2019-04-27T06:42:19.080Z,80.20
2019-04-27T06:43:05.932Z,80.10
2019-04-27T06:44:05.325Z,80.10
2019-04-27T06:45:09.998Z,80.20
2019-04-27T06:46:05.390Z,80.20
2019-04-27T06:47:05.761Z,80.30
2019-04-27T06:48:10.040Z,80.20
2019-04-27T06:49:05.339Z,80.20
2019-04-27T06:50:05.576Z,80.10
2019-04-27T06:51:06.203Z,80.20
2019-04-27T06:52:05.776Z,80.20
2019-04-27T06:53:09.445Z,80.10
2019-04-27T06:54:09.713Z,80.20
2019-04-27T06:55:06.731Z,80.20
2019-04-27T06:56:06.614Z,80.00
2019-04-27T06:57:05.782Z,80.10
2019-04-27T06:58:09.355Z,80.00
2019-04-27T06:59:05.708Z,80.00
2019-04-27T07:00:05.915Z,80.00
2019-04-27T07:01:11.223Z,79.90
2019-04-27T07:02:09.147Z,80.00
2019-04-27T07:03:11.838Z,80.00
2019-04-27T07:04:05.919Z,79.90
2019-04-27T07:05:05.269Z,79.90
2019-04-27T07:06:10.559Z,80.00
2019-04-27T07:07:10.148Z,80.00
2019-04-27T07:08:09.624Z,79.90
2019-04-27T07:09:10.057Z,79.90
2019-04-27T07:10:05.289Z,79.90
2019-04-27T07:11:05.570Z,79.90
2019-04-27T07:12:05.735Z,79.90
2019-04-27T07:13:07.213Z,79.90
2019-04-27T07:14:05.423Z,80.00
2019-04-27T07:15:09.540Z,79.90
2019-04-27T07:16:05.655Z,79.90
2019-04-27T07:17:05.895Z,79.90
2019-04-27T07:18:05.150Z,79.90
2019-04-27T07:19:09.782Z,79.80
2019-04-27T07:20:05.963Z,79.80
2019-04-27T07:21:19.415Z,79.40
2019-04-27T07:22:15.996Z,79.30
2019-04-27T07:23:05.089Z,79.30
2019-04-27T07:24:10.472Z,79.20
2019-04-27T07:25:09.469Z,79.10
2019-04-27T07:26:05.663Z,79.10
2019-04-27T07:27:10.085Z,79.10
2019-04-27T07:28:05.458Z,79.00
2019-04-27T07:29:09.977Z,78.90
2019-04-27T07:30:05.975Z,78.90
2019-04-27T07:31:10.227Z,78.70
2019-04-27T07:32:05.200Z,78.70
2019-04-27T07:33:05.386Z,78.50
2019-04-27T07:34:09.766Z,78.50
2019-04-27T07:35:06.022Z,78.50
2019-04-27T07:36:05.296Z,78.50
2019-04-27T07:37:05.496Z,78.50
2019-04-27T07:38:05.898Z,78.50
2019-04-27T07:39:05.345Z,78.50
2019-04-27T07:40:09.700Z,78.30
2019-04-27T07:41:05.764Z,78.40
2019-04-27T07:42:05.191Z,78.20
2019-04-27T07:43:09.424Z,78.30
2019-04-27T07:44:05.619Z,78.40
2019-04-27T07:45:11.268Z,78.20
2019-04-27T07:46:09.271Z,77.70
2019-04-27T07:47:05.666Z,77.70
2019-04-27T07:48:05.152Z,77.60
2019-04-27T07:49:09.675Z,77.50
2019-04-27T07:50:05.740Z,77.50
2019-04-27T07:51:13.526Z,76.40
2019-04-27T07:52:09.112Z,76.30
2019-04-27T07:53:05.169Z,76.40
2019-04-27T07:54:05.388Z,76.50
2019-04-27T07:55:05.573Z,76.50
2019-04-27T07:56:10.990Z,76.60
2019-04-27T07:57:05.455Z,76.60
2019-04-27T07:58:05.742Z,76.60
2019-04-27T07:59:06.027Z,76.50
2019-04-27T08:00:05.223Z,76.40
2019-04-27T08:01:09.627Z,75.80
2019-04-27T08:02:05.807Z,75.80
2019-04-27T08:03:05.996Z,75.80
2019-04-27T08:04:09.445Z,75.90
2019-04-27T08:05:05.898Z,76.00
2019-04-27T08:06:05.153Z,75.90
2019-04-27T08:07:09.553Z,75.50
2019-04-27T08:08:05.593Z,75.50
2019-04-27T08:09:05.769Z,75.30
2019-04-27T08:10:05.052Z,74.90
2019-04-27T08:11:05.254Z,75.00
2019-04-27T08:12:08.148Z,75.40
2019-04-27T08:13:10.317Z,75.10
2019-04-27T08:14:05.349Z,75.00
2019-04-27T08:15:05.583Z,75.00
2019-04-27T08:16:09.059Z,74.90
2019-04-27T08:17:09.516Z,75.00
2019-04-27T08:18:05.786Z,75.00
2019-04-27T08:19:06.024Z,74.90
2019-04-27T08:20:09.525Z,74.90
2019-04-27T08:21:13.287Z,74.90
2019-04-27T08:22:05.369Z,74.90
2019-04-27T08:23:09.914Z,74.80
2019-04-27T08:24:06.021Z,74.80
2019-04-27T08:25:09.758Z,74.30
2019-04-27T08:26:05.182Z,74.30
2019-04-27T08:27:05.437Z,74.20
2019-04-27T08:28:06.059Z,74.20
2019-04-27T08:29:05.160Z,74.10
2019-04-27T08:30:05.503Z,74.20
2019-04-27T08:31:11.690Z,74.20
2019-04-27T08:32:13.346Z,74.20
2019-04-27T08:33:05.485Z,74.10
2019-04-27T08:34:05.973Z,73.70
2019-04-27T08:35:09.334Z,72.70
2019-04-27T08:36:09.375Z,72.60
2019-04-27T08:37:05.369Z,72.70
2019-04-27T08:38:09.557Z,71.80
2019-04-27T08:39:05.723Z,71.80
2019-04-27T08:40:10.912Z,71.60
2019-04-27T08:41:09.873Z,71.20
2019-04-27T08:42:09.940Z,70.70
2019-04-27T08:43:05.102Z,70.70
2019-04-27T08:44:05.772Z,70.90
2019-04-27T08:45:06.140Z,70.90
2019-04-27T08:46:09.158Z,70.20
2019-04-27T08:47:12.969Z,69.80
2019-04-27T08:48:05.387Z,69.90
2019-04-27T08:49:10.190Z,69.50
2019-04-27T08:50:05.386Z,69.60
2019-04-27T08:51:05.525Z,69.60
2019-04-27T08:52:05.878Z,69.80
2019-04-27T08:53:05.037Z,69.90
2019-04-27T08:54:05.170Z,70.10
2019-04-27T08:55:09.821Z,69.00
2019-04-27T08:56:10.462Z,68.40
2019-04-27T08:57:05.522Z,68.30
2019-04-27T08:58:05.802Z,68.50
2019-04-27T08:59:06.018Z,68.90
2019-04-27T09:00:05.188Z,68.80
2019-04-27T09:01:10.556Z,68.60
2019-04-27T09:02:10.753Z,68.60
2019-04-27T09:03:05.803Z,68.60
2019-04-27T09:04:05.458Z,68.60
2019-04-27T09:05:09.868Z,68.40
2019-04-27T09:06:05.968Z,68.40
2019-04-27T09:07:05.686Z,68.20
2019-04-27T09:08:09.124Z,68.30
2019-04-27T09:09:09.843Z,68.00
2019-04-27T09:10:09.037Z,67.60
2019-04-27T09:11:09.310Z,66.60
2019-04-27T09:12:05.618Z,66.60
2019-04-27T09:13:05.919Z,66.30
2019-04-27T09:14:05.487Z,66.50
2019-04-27T09:15:05.773Z,66.60
2019-04-27T09:16:06.023Z,66.50
2019-04-27T09:17:05.457Z,66.40
2019-04-27T09:18:05.635Z,65.60
2019-04-27T09:19:05.886Z,64.80
2019-04-27T09:20:05.025Z,64.20
2019-04-27T09:21:05.248Z,64.40
2019-04-27T09:22:16.688Z,63.80
2019-04-27T09:23:10.234Z,64.60
2019-04-27T09:24:05.372Z,64.60
2019-04-27T09:25:05.646Z,64.90
2019-04-27T09:26:05.925Z,64.50
2019-04-27T09:27:09.103Z,63.50
2019-04-27T09:28:05.457Z,63.40
2019-04-27T09:29:05.636Z,63.00
2019-04-27T09:30:05.913Z,62.40
2019-04-27T09:31:05.369Z,62.10
2019-04-27T09:32:05.578Z,61.10
2019-04-27T09:33:05.896Z,60.80
2019-04-27T09:34:06.005Z,60.80
2019-04-27T09:35:07.694Z,61.00
2019-04-27T09:36:06.476Z,61.00
2019-04-27T09:37:10.733Z,59.90
2019-04-27T09:38:07.478Z,59.80
2019-04-27T09:39:08.731Z,59.70
2019-04-27T09:40:11.793Z,58.20
2019-04-27T09:41:07.613Z,58.30
2019-04-27T09:42:06.905Z,58.70
2019-04-27T09:43:05.280Z,59.10
2019-04-27T09:44:06.225Z,59.10
2019-04-27T09:45:07.066Z,58.60
2019-04-27T09:46:06.230Z,57.90
2019-04-27T09:47:10.701Z,56.60
2019-04-27T09:48:07.882Z,56.60
2019-04-27T09:49:08.417Z,57.50
2019-04-27T09:50:06.139Z,57.50
2019-04-27T09:51:06.834Z,57.50
2019-04-27T09:52:06.741Z,57.50
2019-04-27T09:53:10.631Z,56.60
2019-04-27T09:54:06.222Z,56.60
2019-04-27T09:55:08.487Z,56.00
2019-04-27T09:56:06.254Z,53.30
2019-04-27T09:57:07.373Z,53.90
2019-04-27T09:58:06.184Z,53.70
2019-04-27T09:59:06.776Z,54.30
2019-04-27T10:00:06.741Z,54.70
2019-04-27T10:01:06.959Z,55.00
2019-04-27T10:02:08.978Z,55.00
2019-04-27T10:03:06.891Z,54.90
2019-04-27T10:04:06.462Z,54.10
2019-04-27T10:05:06.381Z,53.30
2019-04-27T10:06:06.418Z,53.00
2019-04-27T10:07:06.618Z,52.50
2019-04-27T10:08:13.354Z,52.30
2019-04-27T10:09:06.958Z,52.40
2019-04-27T10:10:06.802Z,52.50
2019-04-27T10:11:06.507Z,51.70
2019-04-27T10:12:07.890Z,51.80
2019-04-27T10:13:07.286Z,52.10
2019-04-27T10:14:06.306Z,52.10
2019-04-27T10:15:06.609Z,51.60
2019-04-27T10:16:05.907Z,51.80
2019-04-27T10:17:05.950Z,52.30
2019-04-27T10:18:06.442Z,52.30
2019-04-27T10:19:10.733Z,51.40
2019-04-27T10:20:06.420Z,51.30
2019-04-27T10:21:07.821Z,50.90
2019-04-27T10:22:06.254Z,50.80
2019-04-27T10:23:06.663Z,50.70
2019-04-27T10:24:06.979Z,50.70
2019-04-27T10:25:05.472Z,50.60
2019-04-27T10:26:06.229Z,50.30
2019-04-27T10:27:08.355Z,50.80
2019-04-27T10:28:07.193Z,50.80
2019-04-27T10:29:06.570Z,51.30
2019-04-27T10:30:07.249Z,51.40
2019-04-27T10:31:10.724Z,51.90
2019-04-27T10:32:06.707Z,51.90
2019-04-27T10:33:08.502Z,51.50
2019-04-27T10:34:06.397Z,51.00
2019-04-27T10:35:07.879Z,51.10
2019-04-27T10:36:06.904Z,51.20
2019-04-27T10:37:06.511Z,50.30
2019-04-27T10:38:05.742Z,50.70
2019-04-27T10:39:13.853Z,51.10
2019-04-27T10:40:06.931Z,51.10
2019-04-27T10:41:07.548Z,51.20
2019-04-27T10:42:06.993Z,51.20
2019-04-27T10:43:06.627Z,51.00
2019-04-27T10:44:07.602Z,50.40
2019-04-27T10:45:06.823Z,49.50
2019-04-27T10:46:10.183Z,49.70
2019-04-27T10:47:06.308Z,49.80
2019-04-27T10:48:05.481Z,49.90
2019-04-27T10:49:06.298Z,50.20
2019-04-27T10:50:06.277Z,50.30
2019-04-27T10:51:10.760Z,50.00
2019-04-27T10:52:06.392Z,50.00
2019-04-27T10:53:13.196Z,50.30
2019-04-27T10:54:15.361Z,50.30
2019-04-27T10:55:06.410Z,50.30
2019-04-27T10:56:05.979Z,50.80
2019-04-27T10:57:06.491Z,51.80
2019-04-27T10:58:08.153Z,50.20
2019-04-27T10:59:09.667Z,50.10
2019-04-27T11:00:07.092Z,49.20
2019-04-27T11:01:05.964Z,49.20
2019-04-27T11:02:05.273Z,46.80
2019-04-27T11:03:06.971Z,46.30
2019-04-27T11:04:06.348Z,45.90
2019-04-27T11:05:09.517Z,46.00
2019-04-27T11:06:06.267Z,46.50
2019-04-27T11:07:07.167Z,47.00
2019-04-27T11:08:06.976Z,47.30
2019-04-27T11:09:06.394Z,46.40
2019-04-27T11:10:07.570Z,44.60
2019-04-27T11:11:07.752Z,44.40
2019-04-27T11:12:07.345Z,44.40
2019-04-27T11:13:06.592Z,44.70
2019-04-27T11:14:07.222Z,45.20
2019-04-27T11:15:07.898Z,45.70
2019-04-27T11:16:07.956Z,46.30
2019-04-27T11:17:06.652Z,46.10
2019-04-27T11:18:06.700Z,46.70
2019-04-27T11:19:07.034Z,45.90
2019-04-27T11:20:07.921Z,45.40
2019-04-27T11:21:08.459Z,46.00
2019-04-27T11:22:07.700Z,46.00
2019-04-27T11:23:12.245Z,46.10
2019-04-27T11:24:05.808Z,46.10
2019-04-27T11:25:06.623Z,44.50
2019-04-27T11:26:07.914Z,44.00
2019-04-27T11:27:06.235Z,43.80
2019-04-27T11:28:06.152Z,43.70
2019-04-27T11:29:05.592Z,43.80
2019-04-27T11:30:07.073Z,44.00
2019-04-27T11:31:05.274Z,43.40
2019-04-27T11:32:13.093Z,42.20
2019-04-27T11:33:06.667Z,42.30
2019-04-27T11:34:07.210Z,43.30
2019-04-27T11:35:06.782Z,42.50
2019-04-27T11:36:07.902Z,42.20
2019-04-27T11:37:05.951Z,42.00
2019-04-27T11:38:05.965Z,42.40
2019-04-27T11:39:10.285Z,41.40
2019-04-27T11:40:05.340Z,41.50
2019-04-27T11:41:10.747Z,42.20
2019-04-27T11:42:09.357Z,43.00
2019-04-27T11:43:06.304Z,43.00
2019-04-27T11:44:10.621Z,42.20
2019-04-27T11:45:06.996Z,42.20
2019-04-27T11:46:06.521Z,42.70
2019-04-27T11:47:06.728Z,42.30
2019-04-27T11:48:06.250Z,42.20
2019-04-27T11:49:07.104Z,41.40
2019-04-27T11:50:08.171Z,41.50
2019-04-27T11:51:07.336Z,41.90
2019-04-27T11:52:06.807Z,42.50
2019-04-27T11:53:22.907Z,41.60
2019-04-27T11:54:12.852Z,40.80
2019-04-27T11:55:06.158Z,40.80
2019-04-27T11:56:10.753Z,40.00
2019-04-27T11:57:05.861Z,40.00
2019-04-27T11:58:06.879Z,40.60
2019-04-27T11:59:07.295Z,39.80
2019-04-27T12:00:07.881Z,39.50
2019-04-27T12:01:06.701Z,39.70
2019-04-27T12:02:09.116Z,39.30
2019-04-27T12:03:12.745Z,39.40
2019-04-27T12:04:06.285Z,39.50
2019-04-27T12:05:08.158Z,39.30
2019-04-27T12:06:07.852Z,39.20
2019-04-27T12:07:06.889Z,39.10
2019-04-27T12:08:06.725Z,39.10
2019-04-27T12:09:08.505Z,39.60
2019-04-27T12:10:10.632Z,38.80
2019-04-27T12:11:06.285Z,38.80
2019-04-27T12:12:19.510Z,38.20
2019-04-27T12:13:08.087Z,37.80
2019-04-27T12:14:06.601Z,37.80
2019-04-27T12:15:08.313Z,37.20
2019-04-27T12:16:10.423Z,36.90
2019-04-27T12:17:06.704Z,36.80
2019-04-27T12:18:10.165Z,36.80
2019-04-27T12:19:06.929Z,36.70
2019-04-27T12:20:05.207Z,36.50
2019-04-27T12:21:10.685Z,36.90
2019-04-27T12:22:06.606Z,36.90
2019-04-27T12:23:07.813Z,37.40
2019-04-27T12:24:05.938Z,38.00
2019-04-27T12:25:10.218Z,37.60
2019-04-27T12:26:06.171Z,37.50
2019-04-27T12:27:10.569Z,36.70
2019-04-27T12:28:05.673Z,36.70
2019-04-27T12:29:06.599Z,36.80
2019-04-27T12:30:06.654Z,36.90
2019-04-27T12:31:09.289Z,37.00
2019-04-27T12:32:06.023Z,37.30
2019-04-27T12:33:05.376Z,37.40
2019-04-27T12:34:08.092Z,37.10
2019-04-27T12:35:07.129Z,37.10
2019-04-27T12:36:07.154Z,37.00
2019-04-27T12:37:07.527Z,36.80
2019-04-27T12:38:06.322Z,36.90
2019-04-27T12:39:08.092Z,35.30
2019-04-27T12:40:06.327Z,35.30
2019-04-27T12:41:07.147Z,35.40
2019-04-27T12:42:06.443Z,35.80
2019-04-27T12:43:05.862Z,35.70
2019-04-27T12:44:10.573Z,35.40
2019-04-27T12:45:05.613Z,35.40
2019-04-27T12:46:06.370Z,35.80
2019-04-27T12:47:08.136Z,36.40
2019-04-27T12:48:05.191Z,36.40
2019-04-27T12:49:06.333Z,36.40
2019-04-27T12:50:08.211Z,36.40
2019-04-27T12:51:05.352Z,36.40
2019-04-27T12:52:06.242Z,36.50